Time;durP1;ratioP1;P1;durP2;ratioP2;P2;SDS_P1;SDS_P2;PMS_P1;PMS_P2;Temp;Humidity;BMP_temperature;BMP_pressure;BME280_temperature;BME280_humidity;BME280_pressure;Samples;Min_cycle;Max_cycle;Signal;HPM_P1;HPM_P2
2023/07/16 16:46:47;;;;;;;11.35;8.60;;;;;;;35.65;31.59;99303.97;5068509;27;20592;-76
2023/07/16 16:49:12;;;;;;;12.13;7.47;;;;;;;35.74;31.57;99297.19;5054465;28;20475;-76
2023/07/16 16:51:38;;;;;;;8.75;7.07;;;;;;;35.82;31.22;99307.03;5067301;28;20029;-77
2023/07/16 16:54:03;;;;;;;15.65;7.78;;;;;;;36.08;31.04;99314.94;5048268;28;20120;-78
2023/07/16 16:56:29;;;;;;;15.45;7.50;;;;;;;36.10;30.90;99315.22;5046339;28;20018;-77
2023/07/16 16:58:54;;;;;;;12.20;7.93;;;;;;;36.04;31.14;99308.53;5059296;28;20029;-78
2023/07/16 17:01:20;;;;;;;12.93;6.72;;;;;;;36.08;31.14;99317.84;5056699;28;20040;-77
2023/07/16 17:03:46;;;;;;;27.25;7.10;;;;;;;36.14;30.67;99315.78;5059898;28;20031;-78
2023/07/16 17:06:12;;;;;;;12.30;8.10;;;;;;;36.05;30.98;99313.88;5054760;28;20020;-71
2023/07/16 17:08:38;;;;;;;13.70;6.53;;;;;;;36.16;30.78;99318.19;5060941;28;20537;-77
2023/07/16 17:11:03;;;;;;;7.70;6.68;;;;;;;36.15;31.03;99322.41;5061996;28;20034;-75
2023/07/16 17:13:29;;;;;;;12.32;7.18;;;;;;;36.00;30.97;99316.72;5059466;28;20086;-75
2023/07/16 17:15:54;;;;;;;12.20;7.82;;;;;;;36.05;31.34;99322.59;5052388;28;20025;-77
2023/07/16 17:18:20;;;;;;;11.70;6.93;;;;;;;35.92;31.43;99316.38;5054922;28;20059;-76
2023/07/16 17:20:48;;;;;;;13.60;6.93;;;;;;;35.91;30.80;99321.38;5061486;28;20035;-77
2023/07/16 17:23:13;;;;;;;12.35;6.85;;;;;;;35.82;31.37;99325.28;5062468;28;20033;-76
2023/07/16 17:25:39;;;;;;;8.95;7.00;;;;;;;35.87;31.08;99320.84;5062576;28;20020;-76
2023/07/16 17:28:04;;;;;;;8.30;6.85;;;;;;;35.89;31.36;99326.94;5056079;28;20041;-77
2023/07/16 17:30:31;;;;;;;8.95;6.20;;;;;;;35.61;31.05;99317.94;5051604;28;20465;-77
2023/07/16 17:32:57;;;;;;;10.45;7.03;;;;;;;35.57;31.71;99317.41;5049967;28;20071;-78
2023/07/16 17:35:22;;;;;;;10.73;6.10;;;;;;;35.68;31.44;99327.00;5050977;28;20033;-78
2023/07/16 17:37:48;;;;;;;16.52;7.35;;;;;;;35.68;31.71;99337.84;5052602;28;20044;-78
2023/07/16 17:40:15;;;;;;;11.60;6.57;;;;;;;35.83;31.21;99328.97;5048534;28;20112;-77
2023/07/16 17:42:41;;;;;;;15.98;6.95;;;;;;;35.72;31.35;99329.69;5044908;28;20029;-77
2023/07/16 17:45:07;;;;;;;15.98;7.45;;;;;;;35.70;31.46;99323.59;5045285;28;20071;-75
2023/07/16 17:47:33;;;;;;;11.88;7.22;;;;;;;35.66;31.21;99326.72;5052415;28;20119;-78
2023/07/16 17:49:58;;;;;;;9.23;6.50;;;;;;;35.57;31.37;99326.13;5046936;28;20067;-76
2023/07/16 17:52:24;;;;;;;15.13;6.25;;;;;;;35.30;31.23;99337.69;5057437;28;20090;-75
2023/07/16 17:54:49;;;;;;;9.70;5.90;;;;;;;35.18;30.69;99330.16;5049511;28;20427;-77
2023/07/16 17:57:15;;;;;;;14.85;6.55;;;;;;;35.22;31.42;99330.72;5038419;28;20092;-78
2023/07/16 17:59:41;;;;;;;10.82;6.00;;;;;;;35.05;31.51;99327.63;5038930;28;20033;-76
2023/07/16 18:02:06;;;;;;;12.52;6.50;;;;;;;34.94;31.40;99334.06;5041205;28;20025;-74
2023/07/16 18:04:32;;;;;;;9.18;5.80;;;;;;;34.86;31.13;99340.31;5031232;28;20033;-78
2023/07/16 18:06:57;;;;;;;14.07;5.43;;;;;;;34.70;31.64;99340.91;5033147;28;20100;-76
2023/07/16 18:09:23;;;;;;;10.32;5.30;;;;;;;34.47;31.94;99336.84;5035046;28;20029;-77
2023/07/16 18:11:49;;;;;;;11.45;6.20;;;;;;;34.45;31.99;99343.16;5030939;28;20037;-79
2023/07/16 18:14:15;;;;;;;22.38;6.35;;;;;;;34.42;32.25;99341.28;5037136;28;20032;-77
2023/07/16 18:16:43;;;;;;;11.77;5.93;;;;;;;34.36;32.42;99343.28;5030588;28;20025;-77
2023/07/16 18:19:12;;;;;;;7.43;5.22;;;;;;;34.33;32.81;99359.59;5033296;28;20056;-78
2023/07/16 18:21:38;;;;;;;11.57;6.50;;;;;;;34.43;32.51;99354.47;5035054;28;20575;-77
2023/07/16 18:24:05;;;;;;;8.32;5.50;;;;;;;34.52;32.16;99351.47;5033606;28;20459;-77
2023/07/16 18:26:30;;;;;;;11.07;5.90;;;;;;;34.67;31.94;99362.25;5029686;28;20020;-76
2023/07/16 18:28:56;;;;;;;9.95;5.72;;;;;;;34.80;31.93;99358.97;5031934;28;20034;-79
2023/07/16 18:31:22;;;;;;;8.15;5.63;;;;;;;34.70;32.42;99358.31;5038657;28;20083;-78
2023/07/16 18:33:52;;;;;;;10.13;5.68;;;;;;;34.73;32.14;99363.09;5028336;28;20088;-78
2023/07/16 18:36:20;;;;;;;11.75;5.93;;;;;;;34.52;33.15;99357.28;5030987;28;20100;-80
2023/07/16 18:38:45;;;;;;;11.77;6.00;;;;;;;34.40;33.07;99375.81;5035156;28;20021;-81
2023/07/16 18:41:11;;;;;;;13.68;7.03;;;;;;;34.32;33.53;99365.91;5029620;28;20029;-78
2023/07/16 18:43:36;;;;;;;14.02;7.53;;;;;;;34.20;33.46;99367.81;5033828;28;20117;-80
2023/07/16 18:46:05;;;;;;;11.77;7.55;;;;;;;33.98;34.27;99369.84;5037325;28;20042;-79
2023/07/16 18:48:31;;;;;;;14.07;7.25;;;;;;;33.87;34.45;99372.53;5031983;28;20107;-77
2023/07/16 18:50:58;;;;;;;11.50;6.57;;;;;;;33.67;34.43;99361.63;5034347;28;20040;-77
2023/07/16 18:53:27;;;;;;;8.68;6.57;;;;;;;33.45;34.99;99372.31;5033515;28;20029;-78
2023/07/16 18:55:56;;;;;;;9.77;5.83;;;;;;;33.31;35.34;99370.16;5032720;28;20529;-79
2023/07/16 18:58:21;;;;;;;11.13;5.45;;;;;;;33.31;35.92;99370.94;5031543;28;20439;-78
2023/07/16 19:00:48;;;;;;;8.02;5.57;;;;;;;33.15;36.04;99374.31;5032705;28;20110;-82
2023/07/16 19:03:13;;;;;;;7.78;6.00;;;;;;;33.03;35.82;99371.19;5035284;28;20037;-82
2023/07/16 19:05:39;;;;;;;11.65;5.47;;;;;;;32.91;36.49;99375.13;5030392;28;20033;-79
2023/07/16 19:08:04;;;;;;;8.85;5.65;;;;;;;32.81;36.44;99379.34;5041001;28;20029;-79
2023/07/16 19:10:30;;;;;;;7.22;5.70;;;;;;;32.74;36.42;99368.94;5032475;28;20425;-79
2023/07/16 19:12:55;;;;;;;10.80;6.10;;;;;;;32.77;37.00;99376.63;5048714;28;20021;-79
2023/07/16 19:15:21;;;;;;;14.13;6.30;;;;;;;32.67;36.75;99373.00;5043429;28;20079;-79
2023/07/16 19:17:46;;;;;;;8.88;6.72;;;;;;;32.56;37.01;99376.44;5031909;28;20029;-79
2023/07/16 19:20:12;;;;;;;9.48;6.07;;;;;;;32.47;37.67;99376.50;5050633;28;20488;-79
2023/07/16 19:22:37;;;;;;;9.82;5.90;;;;;;;32.50;37.28;99381.28;5037119;28;20483;-79
2023/07/16 19:25:05;;;;;;;16.05;6.32;;;;;;;32.30;37.68;99376.84;5034445;28;20389;-79
2023/07/16 19:27:30;;;;;;;8.88;5.88;;;;;;;32.31;37.88;99374.78;5039165;28;20049;-79
2023/07/16 19:29:55;;;;;;;13.20;7.10;;;;;;;32.31;38.13;99378.44;5039368;28;20075;-79
2023/07/16 19:32:21;;;;;;;10.50;6.13;;;;;;;32.20;38.48;99381.88;5016302;28;20033;-80
2023/07/16 19:34:47;;;;;;;12.50;6.60;;;;;;;32.37;37.98;99380.72;5040489;28;20158;-80
2023/07/16 19:37:13;;;;;;;12.18;6.13;;;;;;;32.15;38.51;99384.63;5035748;28;20511;-80
2023/07/16 19:39:39;;;;;;;12.00;7.00;;;;;;;32.06;38.72;99386.25;5040147;28;20091;-79
2023/07/16 19:42:04;;;;;;;6.05;5.45;;;;;;;32.14;38.81;99395.38;5036009;28;20025;-78
2023/07/16 19:44:30;;;;;;;20.88;6.35;;;;;;;32.54;37.47;99404.28;5030054;28;20033;-78
2023/07/16 19:46:55;;;;;;;16.98;7.15;;;;;;;32.77;36.91;99405.59;5032008;28;20066;-78
2023/07/16 19:49:21;;;;;;;12.23;7.30;;;;;;;32.89;36.82;99413.22;5038238;28;20036;-78
2023/07/16 19:51:46;;;;;;;11.60;7.57;;;;;;;33.00;36.90;99412.69;5031563;28;20438;-78
2023/07/16 19:54:12;;;;;;;13.40;7.57;;;;;;;32.94;36.93;99406.00;5031769;28;20029;-78
2023/07/16 19:56:38;;;;;;;8.32;6.80;;;;;;;32.53;38.30;99408.47;5040139;28;20072;-78
2023/07/16 19:59:03;;;;;;;15.88;8.27;;;;;;;32.31;38.47;99403.69;5046703;28;20024;-78
2023/07/16 20:01:30;;;;;;;10.48;6.20;;;;;;;32.18;38.90;99410.50;5046530;28;20032;-78
2023/07/16 20:03:56;;;;;;;7.40;5.35;;;;;;;32.16;38.84;99409.38;5035255;28;20549;-78
2023/07/16 20:06:21;;;;;;;10.68;7.10;;;;;;;31.90;39.66;99418.44;5045992;28;20152;-78
2023/07/16 20:08:47;;;;;;;12.65;6.85;;;;;;;31.71;40.02;99411.84;5038699;28;20025;-78
2023/07/16 20:11:12;;;;;;;10.90;6.22;;;;;;;31.63;40.15;99420.84;5030558;28;20028;-78
2023/07/16 20:13:38;;;;;;;8.80;7.03;;;;;;;31.50;40.54;99418.16;5043031;28;20543;-78
2023/07/16 20:16:04;;;;;;;12.07;7.00;;;;;;;31.46;40.76;99414.59;5030786;28;20014;-78
2023/07/16 20:18:31;;;;;;;9.32;6.70;;;;;;;31.41;40.78;99420.22;5037753;28;20025;-78
2023/07/16 20:20:59;;;;;;;7.75;6.55;;;;;;;31.52;40.67;99418.47;5043092;28;20124;-78
2023/07/16 20:23:25;;;;;;;11.77;6.80;;;;;;;31.54;40.60;99423.72;5030496;28;20442;-78
2023/07/16 20:25:51;;;;;;;12.63;7.40;;;;;;;31.33;41.41;99442.84;5042518;28;20472;-78
2023/07/16 20:28:18;;;;;;;10.63;7.60;;;;;;;30.80;42.60;99453.31;5042677;28;20029;-78
2023/07/16 20:30:44;;;;;;;9.40;7.32;;;;;;;30.53;42.58;99449.81;5029155;28;20029;-78
2023/07/16 20:33:10;;;;;;;16.42;7.90;;;;;;;30.45;42.51;99456.34;5028923;28;20037;-78
2023/07/16 20:35:36;;;;;;;9.85;7.20;;;;;;;30.17;41.47;99448.34;5030970;28;20083;-77
2023/07/16 20:38:03;;;;;;;10.07;6.78;;;;;;;30.04;40.96;99454.19;5039003;28;20033;-79
2023/07/16 20:40:30;;;;;;;8.45;6.40;;;;;;;30.02;40.88;99459.59;5035164;28;20033;-77
2023/07/16 20:42:56;;;;;;;9.40;6.78;;;;;;;29.87;40.65;99467.19;5032258;28;20472;-77
2023/07/16 20:45:23;;;;;;;15.48;6.50;;;;;;;29.68;41.31;99464.16;5035148;28;20036;-77
2023/07/16 20:47:51;;;;;;;12.05;6.00;;;;;;;29.62;41.00;99463.94;5031433;28;20056;-77
2023/07/16 20:50:20;;;;;;;10.10;5.95;;;;;;;29.55;41.04;99472.88;5030711;28;20115;-77
2023/07/16 20:52:48;;;;;;;;;;;;;;;29.58;41.49;99476.91;5041420;28;20026;-77
2023/07/16 20:55:15;;;;;;;6.63;5.95;;;;;;;29.53;40.92;99475.41;5030131;28;19952;-77
2023/07/16 20:57:41;;;;;;;7.68;5.47;;;;;;;29.55;40.67;99482.28;5029887;28;20033;-77
2023/07/16 21:00:16;;;;;;;14.30;5.85;;;;;;;29.59;41.07;99487.16;5041944;28;20056;-77
2023/07/16 21:02:43;;;;;;;5.85;5.18;;;;;;;29.64;40.89;99490.25;5035019;28;20470;-77
2023/07/16 21:05:09;;;;;;;6.85;6.15;;;;;;;29.62;40.76;99483.31;5033302;28;20480;-77
2023/07/16 21:07:35;;;;;;;6.88;5.78;;;;;;;29.45;41.20;99483.50;5039128;28;20017;-77
2023/07/16 21:10:01;;;;;;;7.30;5.40;;;;;;;29.22;41.16;99473.97;5036550;28;20100;-77
2023/07/16 21:12:27;;;;;;;7.35;5.60;;;;;;;29.27;41.53;99484.91;5037167;28;20018;-77
2023/07/16 21:14:52;;;;;;;10.18;5.45;;;;;;;29.26;41.44;99488.22;5039688;28;20381;-77
2023/07/16 21:17:18;;;;;;;7.88;5.07;;;;;;;29.28;40.52;99491.47;5036669;28;20029;-77
2023/07/16 21:19:43;;;;;;;6.28;4.88;;;;;;;29.24;40.57;99487.91;5030673;28;20075;-77
2023/07/16 21:22:09;;;;;;;14.38;5.15;;;;;;;29.20;41.24;99495.84;5031339;28;20029;-77
2023/07/16 21:24:35;;;;;;;7.25;5.55;;;;;;;29.18;41.24;99499.19;5046947;28;20405;-77
2023/07/16 21:27:00;;;;;;;5.72;4.88;;;;;;;28.91;41.42;99505.47;5038899;28;20444;-77
2023/07/16 21:29:26;;;;;;;7.78;4.68;;;;;;;28.72;41.30;99499.44;5039026;28;20043;-77
2023/07/16 21:31:51;;;;;;;7.55;4.22;;;;;;;28.82;41.68;99511.91;5045366;28;20021;-76
2023/07/16 21:34:17;;;;;;;7.55;4.63;;;;;;;28.70;41.78;99516.38;5052175;28;20028;-76
2023/07/16 21:36:42;;;;;;;7.63;4.68;;;;;;;28.77;41.49;99523.97;5050243;28;20021;-76
2023/07/16 21:39:08;;;;;;;5.65;4.45;;;;;;;28.66;41.60;99527.16;5051982;28;20021;-76
2023/07/16 21:41:33;;;;;;;6.95;4.70;;;;;;;28.65;41.25;99534.19;5041012;28;20029;-77
2023/07/16 21:43:59;;;;;;;13.38;5.05;;;;;;;28.52;41.72;99528.44;5054058;28;20086;-76
2023/07/16 21:46:24;;;;;;;5.00;3.95;;;;;;;28.51;41.49;99523.94;5040018;28;20073;-77
2023/07/16 21:48:49;;;;;;;7.25;4.50;;;;;;;28.49;41.89;99529.34;5034176;28;20025;-76
2023/07/16 21:51:15;;;;;;;4.78;3.63;;;;;;;28.41;41.17;99525.88;5033957;28;20032;-76
2023/07/16 21:53:41;;;;;;;10.05;4.57;;;;;;;28.21;41.63;99514.56;5045246;28;20021;-76
2023/07/16 21:56:07;;;;;;;5.47;3.80;;;;;;;28.26;41.06;99523.44;5034048;28;20403;-77
2023/07/16 21:58:32;;;;;;;7.22;4.05;;;;;;;28.27;41.26;99535.75;5058789;28;20020;-76
2023/07/16 22:00:58;;;;;;;6.50;4.35;;;;;;;28.17;40.54;99529.84;5059606;28;20029;-76
2023/07/16 22:03:23;;;;;;;13.65;4.53;;;;;;;28.14;40.76;99536.50;5052877;28;20016;-76
2023/07/16 22:05:49;;;;;;;6.40;4.68;;;;;;;28.09;40.38;99550.63;5050831;28;20029;-76
2023/07/16 22:08:14;;;;;;;8.18;4.60;;;;;;;28.04;39.52;99554.84;5053132;28;20016;-76
2023/07/16 22:10:40;;;;;;;8.00;4.18;;;;;;;27.97;40.60;99552.16;5053709;28;20032;-76
2023/07/16 22:13:07;;;;;;;8.38;5.25;;;;;;;28.06;40.45;99560.16;5052517;28;20032;-76
2023/07/16 22:15:33;;;;;;;7.38;4.47;;;;;;;28.26;39.87;99569.44;5053627;28;20120;-76
2023/07/16 22:17:59;;;;;;;12.10;3.88;;;;;;;28.21;39.81;99577.81;5053689;28;20107;-76
2023/07/16 22:20:25;;;;;;;8.85;4.40;;;;;;;28.17;39.34;99572.13;5053533;28;20029;-76
2023/07/16 22:22:55;;;;;;;6.88;4.00;;;;;;;28.15;40.13;99571.78;5048292;28;20022;-76
2023/07/16 22:25:21;;;;;;;7.57;3.97;;;;;;;28.19;40.10;99574.59;5032132;28;20554;-76
2023/07/16 22:27:47;;;;;;;13.25;5.28;;;;;;;28.27;39.76;99578.88;5034556;28;20131;-76
2023/07/16 22:30:12;;;;;;;4.40;4.00;;;;;;;28.45;39.06;99576.28;5033743;28;20021;-77
2023/07/16 22:32:38;;;;;;;8.25;3.92;;;;;;;28.27;39.14;99573.13;5038685;28;20033;-77
2023/07/16 22:35:03;;;;;;;10.20;4.05;;;;;;;28.25;39.60;99576.44;5044706;28;20021;-77
2023/07/16 22:37:29;;;;;;;12.35;4.50;;;;;;;28.20;39.03;99571.28;5032046;28;20033;-76
2023/07/16 22:39:55;;;;;;;6.65;3.95;;;;;;;28.12;39.19;99576.38;5042591;28;20496;-77
2023/07/16 22:42:22;;;;;;;5.75;3.53;;;;;;;28.11;38.79;99577.63;5053014;28;20514;-77
2023/07/16 22:44:48;;;;;;;6.85;4.22;;;;;;;27.88;39.18;99576.63;5053165;28;20050;-77
2023/07/16 22:47:14;;;;;;;10.90;4.60;;;;;;;27.91;39.57;99588.47;5051808;28;20065;-76
2023/07/16 22:49:40;;;;;;;8.85;4.20;;;;;;;27.92;39.41;99587.22;5048128;28;20530;-77
2023/07/16 22:52:06;;;;;;;7.65;3.70;;;;;;;28.02;39.09;99592.66;5050602;28;20020;-76
2023/07/16 22:54:32;;;;;;;8.07;3.83;;;;;;;27.92;39.57;99590.09;5047710;28;20020;-77
2023/07/16 22:56:57;;;;;;;8.65;4.57;;;;;;;27.89;39.32;99594.66;5043959;28;20014;-76
2023/07/16 22:59:23;;;;;;;6.43;3.97;;;;;;;27.87;39.53;99598.00;5047290;28;20021;-76
2023/07/16 23:01:49;;;;;;;8.73;4.25;;;;;;;27.95;39.29;99592.06;5042534;28;20032;-77
2023/07/16 23:04:15;;;;;;;9.30;5.35;;;;;;;28.00;39.35;99594.38;5037493;28;20565;-77
2023/07/16 23:06:41;;;;;;;8.23;3.97;;;;;;;27.84;39.23;99587.41;5033793;28;20135;-77
2023/07/16 23:09:08;;;;;;;4.90;3.55;;;;;;;27.74;39.48;99597.94;5033840;28;20025;-76
2023/07/16 23:11:34;;;;;;;8.75;4.15;;;;;;;27.63;39.51;99588.78;5050900;28;20021;-76
2023/07/16 23:14:00;;;;;;;4.63;3.42;;;;;;;27.68;39.97;99590.31;5039941;28;20155;-76
2023/07/16 23:16:25;;;;;;;7.95;3.65;;;;;;;27.60;39.56;99590.47;5050800;28;20021;-76
2023/07/16 23:18:51;;;;;;;6.53;3.90;;;;;;;27.58;39.61;99592.22;5050636;28;20028;-76
2023/07/16 23:21:17;;;;;;;4.22;3.75;;;;;;;27.62;39.76;99587.19;5038749;28;20549;-77
2023/07/16 23:23:42;;;;;;;7.80;4.03;;;;;;;27.63;39.32;99596.59;5049916;28;20024;-76
2023/07/16 23:26:08;;;;;;;5.07;4.10;;;;;;;27.71;39.46;99595.97;5031306;28;20033;-76
2023/07/16 23:28:34;;;;;;;6.00;3.80;;;;;;;27.87;39.42;99600.06;5031236;28;20025;-77
2023/07/16 23:31:00;;;;;;;5.82;4.30;;;;;;;28.00;39.19;99605.88;5033407;28;20095;-76
2023/07/16 23:33:26;;;;;;;9.02;4.20;;;;;;;27.85;39.37;99609.13;5051828;28;20487;-76
2023/07/16 23:35:52;;;;;;;10.63;3.92;;;;;;;27.72;40.03;99603.31;5050595;28;20111;-76
2023/07/16 23:38:17;;;;;;;5.97;4.07;;;;;;;27.55;40.61;99599.66;5048920;28;20056;-76
2023/07/16 23:40:43;;;;;;;5.32;3.58;;;;;;;27.64;41.35;99609.72;5040648;28;20030;-76
2023/07/16 23:43:08;;;;;;;7.13;3.45;;;;;;;27.68;41.29;99608.34;5046984;28;20417;-76
2023/07/16 23:45:34;;;;;;;7.95;4.30;;;;;;;27.77;41.25;99610.59;5031736;28;20064;-76
2023/07/16 23:48:00;;;;;;;10.05;4.50;;;;;;;27.72;41.84;99609.06;5032118;28;20064;-76
2023/07/16 23:50:26;;;;;;;6.95;4.38;;;;;;;27.71;41.85;99618.94;5041892;28;20083;-76
2023/07/16 23:52:53;;;;;;;6.35;4.20;;;;;;;27.56;42.43;99624.25;5034498;28;20408;-76
2023/07/16 23:55:19;;;;;;;7.25;4.00;;;;;;;27.64;42.15;99615.47;5050790;28;20024;-76
2023/07/16 23:57:44;;;;;;;7.55;4.50;;;;;;;27.52;42.54;99614.91;5067028;28;20042;-76
